Cedar Rapids, Iowa
Current Conditions -  °F | °C
As of 1:52 AM on Saturday 29 Nov 2014 (Local Time) from KCID Reporting Station
Clear Clear  
Wind Chill: 23°   Ceiling: Unl
Heat Index: 31°   Visibility: 7mi
Dew Point: 30°   Wind: 8mph
Humidity: 96%   Direction: 140°SE
Pressure: 29.66"   Gusts: NA
Location:  41.98°N, 91.67°W
Report Text: KCID 290752Z AUTO 14007KT 7SM CLR M01/M01 A2966 RMK AO2 SLP051 T10061011
Loading
Personal Weather Stations






























Interactive Weather Map New forecast layout! Learn more

10-Day Weather Forecast

Advertisements
Track Severe Weather on mobile